Time;durP1;ratioP1;P1;durP2;ratioP2;P2;SDS_P1;SDS_P2;PMS_P1;PMS_P2;Temp;Humidity;BMP_temperature;BMP_pressure;BME280_temperature;BME280_humidity;BME280_pressure;Samples;Min_cycle;Max_cycle;Signal;HPM_P1;HPM_P2
2023/05/05 00:00:52;;;;;;;10.00;9.10;;;13.70;87.80;;;;;;5011376;28;20483;-69
2023/05/05 00:03:20;;;;;;;10.10;8.60;;;13.70;86.70;;;;;;5009909;28;20487;-67
2023/05/05 00:05:48;;;;;;;9.90;8.90;;;13.80;83.70;;;;;;5011138;28;20453;-69
2023/05/05 00:08:15;;;;;;;15.17;9.77;;;13.80;86.50;;;;;;5011472;28;20964;-68
2023/05/05 00:10:44;;;;;;;10.70;9.70;;;13.90;83.50;;;;;;5011353;28;20449;-70
2023/05/05 00:13:11;;;;;;;9.97;8.97;;;13.90;83.90;;;;;;5010166;28;20446;-67
2023/05/05 00:15:38;;;;;;;10.50;9.50;;;13.80;84.50;;;;;;5010977;28;20899;-69
2023/05/05 00:18:06;;;;;;;11.97;10.87;;;13.80;86.70;;;;;;5010896;28;20457;-67
2023/05/05 00:20:33;;;;;;;12.00;10.80;;;13.80;84.40;;;;;;5011156;28;20456;-67
2023/05/05 00:23:00;;;;;;;13.77;11.00;;;13.90;81.90;;;;;;5009628;28;20484;-67
2023/05/05 00:25:28;;;;;;;11.77;10.40;;;13.80;82.10;;;;;;5010631;28;20485;-68
2023/05/05 00:27:54;;;;;;;14.43;9.60;;;13.80;82.10;;;;;;5010523;28;20449;-67
2023/05/05 00:30:22;;;;;;;12.90;10.00;;;13.80;82.20;;;;;;5010749;28;20445;-68
2023/05/05 00:32:49;;;;;;;11.20;10.20;;;13.80;83.10;;;;;;5010115;28;20857;-67
2023/05/05 00:35:17;;;;;;;11.30;9.87;;;13.80;81.60;;;;;;5010951;28;20477;-66
2023/05/05 00:37:44;;;;;;;11.20;10.00;;;13.90;82.20;;;;;;5010954;28;20454;-66
2023/05/05 00:40:12;;;;;;;11.73;10.63;;;13.90;82.90;;;;;;5010325;28;20845;-66
2023/05/05 00:42:40;;;;;;;15.00;10.60;;;13.90;83.70;;;;;;5009516;28;21014;-66
2023/05/05 00:45:08;;;;;;;11.13;9.80;;;13.90;84.30;;;;;;5010259;28;21183;-65
2023/05/05 00:47:35;;;;;;;10.93;9.83;;;13.90;85.70;;;;;;5010987;28;20450;-68
2023/05/05 00:50:03;;;;;;;11.80;10.70;;;13.70;88.70;;;;;;5010605;28;20450;-69
2023/05/05 00:52:31;;;;;;;12.03;10.83;;;13.60;88.80;;;;;;5009535;28;20450;-67
2023/05/05 00:54:58;;;;;;;10.83;9.90;;;13.50;90.90;;;;;;5010159;28;20475;-67
2023/05/05 00:57:25;;;;;;;11.40;10.20;;;13.40;91.20;;;;;;5010010;28;20453;-68
2023/05/05 00:59:54;;;;;;;11.47;10.27;;;13.40;91.80;;;;;;5010349;28;20434;-69
2023/05/05 01:02:22;;;;;;;12.90;10.70;;;13.30;91.80;;;;;;5011170;28;20492;-67
2023/05/05 01:04:49;;;;;;;12.60;11.27;;;13.20;91.70;;;;;;5016558;28;20470;-69
2023/05/05 01:07:26;;;;;;;11.50;10.37;;;13.20;90.80;;;;;;5016836;28;20453;-68
2023/05/05 01:10:02;;;;;;;11.30;10.30;;;13.20;92.10;;;;;;5016783;28;20869;-67
2023/05/05 01:12:37;;;;;;;10.40;9.40;;;13.30;91.80;;;;;;5016014;28;20468;-70
2023/05/05 01:15:10;;;;;;;12.40;10.20;;;13.20;91.10;;;;;;5017045;28;20472;-68
2023/05/05 01:17:42;;;;;;;10.53;9.53;;;13.10;90.50;;;;;;5017568;28;20452;-67
2023/05/05 01:20:19;;;;;;;10.97;9.90;;;13.10;91.30;;;;;;5017018;28;20456;-68
2023/05/05 01:22:51;;;;;;;10.23;9.33;;;12.90;91.00;;;;;;5015875;28;20487;-68
2023/05/05 01:25:51;;;;;;;11.10;9.97;;;12.90;90.20;;;;;;5016810;28;20473;-66
2023/05/05 01:28:28;;;;;;;10.00;8.70;;;12.90;90.40;;;;;;5017171;28;20475;-67
2023/05/05 01:31:09;;;;;;;11.90;10.10;;;13.00;91.90;;;;;;5016516;28;20456;-67
2023/05/05 01:33:47;;;;;;;10.90;9.80;;;13.10;92.40;;;;;;5015607;28;20458;-69
2023/05/05 01:36:21;;;;;;;9.73;8.83;;;13.00;92.70;;;;;;5017108;28;20456;-69
2023/05/05 01:38:55;;;;;;;10.80;9.30;;;12.90;91.40;;;;;;5016262;28;20446;-69
2023/05/05 01:41:28;;;;;;;9.37;8.37;;;12.80;90.50;;;;;;5016866;28;20473;-69
2023/05/05 01:43:57;;;;;;;10.23;9.20;;;12.70;91.00;;;;;;5015406;28;20491;-68
2023/05/05 01:46:24;;;;;;;10.93;9.77;;;12.60;91.80;;;;;;5017350;28;20532;-67
2023/05/05 01:48:55;;;;;;;9.87;8.97;;;12.70;92.10;;;;;;5017630;28;20476;-68
2023/05/05 01:51:25;;;;;;;12.07;9.90;;;12.70;93.20;;;;;;5017570;28;20450;-67
2023/05/05 01:53:54;;;;;;;11.97;10.87;;;12.60;93.10;;;;;;5016343;28;20473;-68
2023/05/05 01:56:24;;;;;;;12.03;10.80;;;12.50;93.10;;;;;;5017670;28;20542;-69
2023/05/05 01:58:53;;;;;;;12.57;11.30;;;12.40;93.50;;;;;;5017863;28;20453;-66
2023/05/05 02:01:22;;;;;;;16.20;10.80;;;12.40;94.30;;;;;;5016157;28;20529;-65
2023/05/05 02:03:51;;;;;;;11.80;10.63;;;12.30;94.10;;;;;;5015029;28;21069;-68
2023/05/05 02:06:21;;;;;;;10.53;9.43;;;12.30;94.50;;;;;;5016700;28;20455;-66
2023/05/05 02:08:50;;;;;;;10.73;9.77;;;12.30;92.60;;;;;;5017096;28;20457;-67
2023/05/05 02:11:18;;;;;;;10.47;9.50;;;12.40;92.30;;;;;;5016918;28;20446;-68
2023/05/05 02:13:46;;;;;;;9.70;8.73;;;12.40;93.40;;;;;;5014173;28;20476;-69
2023/05/05 02:16:13;;;;;;;11.50;10.23;;;12.30;93.50;;;;;;5013253;28;20449;-68
2023/05/05 02:18:42;;;;;;;10.63;9.63;;;12.40;94.10;;;;;;5013493;28;20826;-67
2023/05/05 02:21:09;;;;;;;12.83;10.57;;;12.40;94.70;;;;;;5013920;28;20458;-69
2023/05/05 02:23:38;;;;;;;12.37;11.07;;;12.50;95.30;;;;;;5012116;28;20963;-67
2023/05/05 02:26:07;;;;;;;16.10;13.20;;;12.40;94.80;;;;;;5013543;28;20453;-67
2023/05/05 02:28:40;;;;;;;14.00;12.60;;;12.80;94.10;;;;;;5013364;28;20457;-68
2023/05/05 02:31:09;;;;;;;13.90;11.83;;;12.80;94.00;;;;;;5020637;28;20454;-68
2023/05/05 02:33:39;;;;;;;16.07;12.43;;;12.90;93.70;;;;;;5031764;28;20459;-68
2023/05/05 02:36:12;;;;;;;15.50;12.17;;;12.90;93.40;;;;;;5032905;28;20459;-67
2023/05/05 02:38:44;;;;;;;14.77;12.90;;;12.90;93.70;;;;;;5032892;28;20452;-69
2023/05/05 02:41:15;;;;;;;14.50;13.00;;;12.80;94.80;;;;;;5032433;28;20940;-69
2023/05/05 02:43:43;;;;;;;13.17;11.73;;;12.60;95.10;;;;;;5031588;28;20490;-67
2023/05/05 02:46:10;;;;;;;13.60;11.77;;;12.40;95.00;;;;;;5033192;28;20542;-68
2023/05/05 02:48:36;;;;;;;13.13;11.83;;;12.30;95.50;;;;;;5033321;28;20452;-66
2023/05/05 02:51:04;;;;;;;13.10;11.80;;;12.20;95.70;;;;;;5033209;28;21411;-67
2023/05/05 02:53:32;;;;;;;13.43;12.20;;;12.10;95.70;;;;;;5031963;28;20539;-66
2023/05/05 02:56:09;;;;;;;15.40;13.03;;;11.90;96.30;;;;;;5033085;28;20459;-67
2023/05/05 02:58:42;;;;;;;15.00;12.63;;;12.00;97.00;;;;;;5032630;28;20463;-67
2023/05/05 03:01:17;;;;;;;16.97;11.80;;;11.90;96.20;;;;;;5032976;28;20450;-67
2023/05/05 03:03:51;;;;;;;15.23;12.63;;;11.90;97.30;;;;;;5031612;28;20491;-68
2023/05/05 03:06:19;;;;;;;17.30;12.97;;;11.80;97.30;;;;;;5033099;28;20436;-67
2023/05/05 03:08:53;;;;;;;13.97;12.63;;;11.80;97.60;;;;;;5032831;28;20855;-70
2023/05/05 03:11:27;;;;;;;13.70;12.30;;;11.80;98.00;;;;;;5032857;28;20557;-71
2023/05/05 03:14:01;;;;;;;13.60;12.20;;;11.70;97.70;;;;;;5031457;28;20483;-66
2023/05/05 03:16:29;;;;;;;13.00;11.80;;;11.70;98.30;;;;;;5032983;28;20453;-67
2023/05/05 03:18:57;;;;;;;14.43;12.03;;;11.60;97.70;;;;;;5033249;28;20520;-67
2023/05/05 03:21:25;;;;;;;17.03;12.47;;;11.70;97.40;;;;;;5032562;28;20459;-66
2023/05/05 03:23:52;;;;;;;13.70;12.23;;;11.80;97.00;;;;;;5031647;28;20549;-66
2023/05/05 03:26:19;;;;;;;15.27;13.00;;;11.80;96.90;;;;;;5031875;28;20532;-68
2023/05/05 03:28:47;;;;;;;13.73;12.47;;;11.80;97.50;;;;;;5032570;28;20554;-67
2023/05/05 03:31:14;;;;;;;14.23;12.83;;;11.90;98.30;;;;;;5032501;28;20466;-67
2023/05/05 03:33:41;;;;;;;12.77;11.57;;;11.80;98.20;;;;;;5030779;28;20507;-70
2023/05/05 03:36:08;;;;;;;14.20;12.70;;;11.70;97.80;;;;;;5032504;28;20453;-67
2023/05/05 03:38:35;;;;;;;18.77;12.73;;;11.70;97.60;;;;;;5032330;28;20838;-70
2023/05/05 03:41:02;;;;;;;13.87;12.47;;;11.80;98.20;;;;;;5032530;28;20458;-68
2023/05/05 03:43:29;;;;;;;15.33;12.57;;;11.80;97.00;;;;;;5031253;28;20488;-69
2023/05/05 03:45:57;;;;;;;13.03;11.60;;;11.70;97.00;;;;;;5032607;28;20449;-67
2023/05/05 03:48:24;;;;;;;13.97;11.30;;;11.70;96.90;;;;;;5032758;28;20828;-68
2023/05/05 03:50:51;;;;;;;13.43;11.90;;;11.80;96.90;;;;;;5032298;28;20463;-67
2023/05/05 03:53:18;;;;;;;12.37;11.17;;;12.00;95.80;;;;;;5030985;28;20854;-69
2023/05/05 03:55:44;;;;;;;14.83;11.00;;;12.00;95.80;;;;;;5032030;28;20550;-67
2023/05/05 03:58:11;;;;;;;12.90;10.70;;;11.90;95.60;;;;;;5032507;28;20874;-69
2023/05/05 04:00:38;;;;;;;16.33;10.90;;;11.90;95.50;;;;;;5032426;28;20443;-69
2023/05/05 04:03:06;;;;;;;10.87;9.80;;;12.00;95.30;;;;;;5030531;28;21015;-69
2023/05/05 04:05:33;;;;;;;10.53;9.53;;;12.00;96.40;;;;;;5031691;28;20547;-67
2023/05/05 04:08:00;;;;;;;10.80;9.70;;;12.10;96.30;;;;;;5031213;28;20447;-68
2023/05/05 04:10:27;;;;;;;10.97;9.70;;;12.20;96.60;;;;;;5031367;28;20464;-69
2023/05/05 04:12:53;;;;;;;12.20;11.00;;;12.30;96.30;;;;;;5029561;28;20558;-67
2023/05/05 04:15:20;;;;;;;13.43;12.13;;;12.30;95.20;;;;;;5030505;28;20467;-66
2023/05/05 04:17:47;;;;;;;13.00;11.27;;;12.20;95.50;;;;;;5030641;28;20445;-67
2023/05/05 04:20:15;;;;;;;12.60;11.40;;;12.10;95.80;;;;;;5030254;28;20455;-66
2023/05/05 04:22:42;;;;;;;12.60;10.87;;;12.10;96.70;;;;;;5029491;28;20449;-68
2023/05/05 04:25:09;;;;;;;12.70;11.33;;;12.10;95.70;;;;;;5030770;28;20847;-66
2023/05/05 04:27:36;;;;;;;14.73;12.70;;;12.10;96.00;;;;;;5030876;28;20967;-68
2023/05/05 04:30:03;;;;;;;13.13;11.70;;;12.10;96.70;;;;;;5030519;28;20444;-67
2023/05/05 04:32:30;;;;;;;13.10;10.60;;;12.20;96.90;;;;;;5029493;28;20957;-68
2023/05/05 04:34:57;;;;;;;13.20;12.00;;;12.30;97.50;;;;;;5030572;28;20456;-64
2023/05/05 04:37:25;;;;;;;11.57;10.43;;;12.30;97.20;;;;;;5030005;28;20457;-68
2023/05/05 04:39:52;;;;;;;11.87;10.73;;;12.30;96.30;;;;;;5030657;28;20465;-68
2023/05/05 04:42:19;;;;;;;12.67;11.47;;;12.20;96.50;;;;;;5029735;28;20458;-65
2023/05/05 04:44:46;;;;;;;14.27;11.07;;;12.30;96.10;;;;;;5030400;28;20510;-68
2023/05/05 04:47:13;;;;;;;13.63;10.50;;;12.40;96.00;;;;;;5030544;28;20454;-68
2023/05/05 04:49:39;;;;;;;11.33;10.23;;;12.50;95.70;;;;;;5030858;28;20470;-66
2023/05/05 04:52:07;;;;;;;12.20;10.87;;;12.60;94.90;;;;;;5029717;28;20483;-66
2023/05/05 04:54:36;;;;;;;12.30;10.83;;;12.70;95.30;;;;;;5030074;28;20472;-66
2023/05/05 04:57:03;;;;;;;11.60;10.50;;;12.80;96.20;;;;;;5031230;28;20451;-66
2023/05/05 04:59:30;;;;;;;12.73;10.97;;;13.00;96.80;;;;;;5030409;28;20801;-67
2023/05/05 05:01:57;;;;;;;11.10;10.00;;;13.10;97.40;;;;;;5030277;28;20535;-68
2023/05/05 05:04:25;;;;;;;11.87;10.67;;;13.20;96.70;;;;;;5028856;28;20491;-64
2023/05/05 05:06:52;;;;;;;13.80;12.40;;;13.30;96.60;;;;;;5029898;28;20458;-65
2023/05/05 05:09:19;;;;;;;13.37;10.97;;;13.30;96.10;;;;;;5030200;28;20548;-68
2023/05/05 05:11:47;;;;;;;12.63;11.17;;;13.60;96.20;;;;;;5030053;28;20627;-65
2023/05/05 05:14:14;;;;;;;13.20;12.00;;;13.70;94.80;;;;;;5028889;28;20994;-66
2023/05/05 05:16:41;;;;;;;12.03;10.73;;;13.80;94.70;;;;;;5029911;28;20462;-64
2023/05/05 05:19:08;;;;;;;12.30;11.10;;;13.90;93.50;;;;;;5029897;28;20451;-67
2023/05/05 05:21:35;;;;;;;11.50;10.50;;;13.90;93.40;;;;;;5030140;28;20452;-66
2023/05/05 05:24:01;;;;;;;11.33;10.17;;;14.00;94.00;;;;;;5028612;28;20507;-66
2023/05/05 05:26:28;;;;;;;13.10;11.80;;;14.20;94.20;;;;;;5029755;28;20454;-66
2023/05/05 05:28:56;;;;;;;12.80;11.60;;;14.40;93.40;;;;;;5033969;28;20445;-68
2023/05/05 05:31:23;;;;;;;14.70;11.63;;;14.50;93.20;;;;;;5038358;28;20474;-67
2023/05/05 05:33:50;;;;;;;13.40;12.17;;;14.60;91.90;;;;;;5030852;28;20467;-68
2023/05/05 05:36:17;;;;;;;14.13;11.50;;;14.70;92.10;;;;;;5030210;28;20449;-67
2023/05/05 05:38:44;;;;;;;12.60;11.30;;;14.70;92.10;;;;;;5032689;28;20454;-68
2023/05/05 05:41:11;;;;;;;13.63;11.67;;;14.70;92.60;;;;;;5033722;28;20467;-69
2023/05/05 05:43:38;;;;;;;15.90;11.80;;;14.60;92.70;;;;;;5030902;28;20491;-66
2023/05/05 05:46:06;;;;;;;13.93;12.37;;;14.60;92.70;;;;;;5032236;28;20466;-67
2023/05/05 05:48:33;;;;;;;15.30;11.70;;;14.70;93.00;;;;;;5032360;28;20452;-66
2023/05/05 05:51:00;;;;;;;12.80;11.53;;;14.70;92.60;;;;;;5034482;28;20470;-68
2023/05/05 05:53:27;;;;;;;12.50;11.10;;;14.70;92.20;;;;;;5034843;28;20440;-67
2023/05/05 05:55:54;;;;;;;12.90;11.60;;;14.70;92.40;;;;;;5034660;28;20459;-65
2023/05/05 05:58:21;;;;;;;13.33;11.47;;;14.90;93.20;;;;;;5037180;28;20822;-66
2023/05/05 06:00:48;;;;;;;13.37;11.80;;;15.00;92.70;;;;;;5039364;28;20450;-66
2023/05/05 06:03:16;;;;;;;12.57;11.33;;;15.20;93.30;;;;;;5039725;28;20436;-66
2023/05/05 06:05:44;;;;;;;14.00;12.77;;;15.30;92.50;;;;;;5035791;28;20968;-66
2023/05/05 06:08:11;;;;;;;13.60;11.83;;;15.60;91.80;;;;;;5033958;28;20440;-66
2023/05/05 06:10:38;;;;;;;14.13;12.03;;;15.90;91.70;;;;;;5033900;28;20528;-67
2023/05/05 06:13:05;;;;;;;13.20;11.80;;;16.20;91.80;;;;;;5033041;28;20888;-69
2023/05/05 06:15:32;;;;;;;12.40;10.73;;;16.60;90.00;;;;;;5034005;28;20464;-66
2023/05/05 06:17:59;;;;;;;11.67;10.07;;;16.90;89.60;;;;;;5035182;28;20441;-67
2023/05/05 06:20:27;;;;;;;10.60;9.50;;;17.20;85.30;;;;;;5035757;28;20452;-65
2023/05/05 06:22:54;;;;;;;12.50;9.77;;;17.40;86.40;;;;;;5033218;28;20456;-67
2023/05/05 06:25:20;;;;;;;10.07;9.07;;;17.60;84.10;;;;;;5032618;28;20490;-69
2023/05/05 06:27:47;;;;;;;10.90;10.00;;;17.70;81.70;;;;;;5032520;28;20473;-69
2023/05/05 06:30:14;;;;;;;11.80;10.80;;;17.90;81.00;;;;;;5032313;28;20456;-66
2023/05/05 06:32:41;;;;;;;13.57;11.10;;;18.10;80.50;;;;;;5031110;28;20456;-68
2023/05/05 06:35:09;;;;;;;11.33;9.97;;;18.40;79.10;;;;;;5032092;28;20828;-67
2023/05/05 06:37:37;;;;;;;13.03;10.43;;;18.70;76.80;;;;;;5032517;28;20822;-69
2023/05/05 06:40:05;;;;;;;10.00;9.10;;;19.00;77.60;;;;;;5032024;28;21049;-69
2023/05/05 06:42:32;;;;;;;11.03;9.97;;;19.40;75.20;;;;;;5031270;28;20475;-69
2023/05/05 06:44:58;;;;;;;10.13;9.20;;;19.70;73.30;;;;;;5032076;28;20484;-67
2023/05/05 06:47:25;;;;;;;12.30;9.10;;;19.90;72.00;;;;;;5032007;28;20946;-70
2023/05/05 06:49:52;;;;;;;11.73;9.90;;;20.10;73.00;;;;;;5032095;28;20440;-68
2023/05/05 06:52:19;;;;;;;8.63;7.83;;;20.20;71.70;;;;;;5031854;28;20453;-67
2023/05/05 06:54:47;;;;;;;11.30;9.00;;;20.30;69.60;;;;;;5031332;28;20880;-69
2023/05/05 06:57:14;;;;;;;10.43;9.33;;;20.30;69.80;;;;;;5032004;28;20449;-69
2023/05/05 06:59:41;;;;;;;12.13;8.87;;;20.30;67.90;;;;;;5032100;28;20460;-67
2023/05/05 07:02:08;;;;;;;13.13;9.63;;;20.30;69.90;;;;;;5031055;28;20449;-71
2023/05/05 07:04:35;;;;;;;9.90;8.57;;;20.20;67.30;;;;;;5031123;28;20520;-70
2023/05/05 07:07:02;;;;;;;14.00;8.93;;;20.10;69.00;;;;;;5031900;28;20866;-66
2023/05/05 07:09:28;;;;;;;9.73;8.83;;;20.10;70.60;;;;;;5031794;28;20454;-69
2023/05/05 07:11:57;;;;;;;9.70;8.33;;;20.10;70.30;;;;;;5031749;28;20847;-67
2023/05/05 07:14:23;;;;;;;9.63;8.63;;;20.10;69.80;;;;;;5030787;28;20457;-67
2023/05/05 07:16:50;;;;;;;10.10;8.50;;;20.30;69.20;;;;;;5031884;28;21088;-66
2023/05/05 07:19:17;;;;;;;9.90;8.90;;;20.20;69.30;;;;;;5031800;28;20452;-70
2023/05/05 07:21:44;;;;;;;10.70;8.90;;;20.20;71.80;;;;;;5032272;28;20475;-68
2023/05/05 07:24:11;;;;;;;12.03;8.67;;;20.30;72.70;;;;;;5030453;28;20488;-66
2023/05/05 07:26:37;;;;;;;13.60;8.63;;;20.30;73.50;;;;;;5032128;28;20775;-67
2023/05/05 07:29:06;;;;;;;12.33;9.30;;;20.40;71.00;;;;;;5031981;28;20468;-67
2023/05/05 07:31:33;;;;;;;11.20;9.13;;;20.50;70.20;;;;;;5032367;28;20536;-66
2023/05/05 07:34:00;;;;;;;16.20;8.23;;;20.50;71.00;;;;;;5030504;28;20457;-67
2023/05/05 07:36:27;;;;;;;10.13;7.73;;;20.60;71.10;;;;;;5031663;28;20452;-66
2023/05/05 07:38:54;;;;;;;13.03;8.80;;;20.60;72.10;;;;;;5031235;28;20830;-68
2023/05/05 07:41:21;;;;;;;12.10;8.70;;;20.50;72.60;;;;;;5031250;28;20507;-67
2023/05/05 07:43:48;;;;;;;10.47;8.20;;;20.50;70.30;;;;;;5029841;28;20840;-70
2023/05/05 07:46:16;;;;;;;13.93;8.43;;;20.60;73.10;;;;;;5031424;28;20457;-67
2023/05/05 07:48:43;;;;;;;10.10;8.50;;;20.80;71.80;;;;;;5031418;28;20838;-66
2023/05/05 07:51:10;;;;;;;9.50;7.73;;;20.80;71.10;;;;;;5031240;28;20544;-67
2023/05/05 07:53:36;;;;;;;12.77;9.30;;;21.00;68.60;;;;;;5029890;28;20460;-69
2023/05/05 07:56:03;;;;;;;11.93;8.40;;;21.10;70.30;;;;;;5031070;28;20821;-67
2023/05/05 07:58:30;;;;;;;11.20;8.17;;;21.20;69.30;;;;;;5030618;28;20455;-67
2023/05/05 08:00:57;;;;;;;8.80;8.00;;;21.10;72.60;;;;;;5031029;28;20551;-67
2023/05/05 08:03:25;;;;;;;8.93;8.00;;;21.10;72.50;;;;;;5029608;28;20448;-67
2023/05/05 08:05:54;;;;;;;10.57;7.50;;;20.90;71.60;;;;;;5030887;28;20578;-67
2023/05/05 08:08:23;;;;;;;10.67;8.40;;;20.70;72.40;;;;;;5030787;28;20452;-68
2023/05/05 08:10:50;;;;;;;8.97;8.17;;;20.60;71.20;;;;;;5030758;28;20457;-67
2023/05/05 08:13:17;;;;;;;12.07;7.73;;;20.50;70.10;;;;;;5028646;28;20445;-69
2023/05/05 08:15:44;;;;;;;8.33;7.30;;;20.20;72.10;;;;;;5030813;28;20455;-69
2023/05/05 08:18:11;;;;;;;10.73;7.60;;;20.00;72.10;;;;;;5030762;28;20511;-69
2023/05/05 08:20:39;;;;;;;8.10;7.20;;;19.70;75.10;;;;;;5030977;28;20527;-67
2023/05/05 08:23:06;;;;;;;7.93;6.97;;;19.60;74.40;;;;;;5029432;28;20824;-65
2023/05/05 08:25:33;;;;;;;7.77;5.73;;;19.40;75.70;;;;;;5030574;28;20491;-68
2023/05/05 08:28:00;;;;;;;7.40;6.03;;;19.30;78.50;;;;;;5030686;28;20452;-69
2023/05/05 08:30:27;;;;;;;8.37;5.40;;;19.20;79.60;;;;;;5030496;28;20445;-67
2023/05/05 08:32:53;;;;;;;7.10;5.43;;;19.10;80.50;;;;;;5029213;28;20466;-66
2023/05/05 08:35:20;;;;;;;7.87;5.70;;;18.80;84.20;;;;;;5030029;28;20522;-68
2023/05/05 08:37:50;;;;;;;9.03;5.37;;;18.50;88.30;;;;;;5029676;28;20487;-69
2023/05/05 08:40:17;;;;;;;7.97;5.17;;;18.20;91.40;;;;;;5029821;28;20947;-66
2023/05/05 08:42:45;;;;;;;6.67;4.30;;;17.90;91.90;;;;;;5028706;28;20462;-68
2023/05/05 08:45:12;;;;;;;8.00;4.17;;;17.70;93.10;;;;;;5029701;28;20528;-68
2023/05/05 08:47:39;;;;;;;6.77;4.10;;;17.60;93.40;;;;;;5029772;28;20822;-65
2023/05/05 08:50:09;;;;;;;6.87;4.27;;;17.50;94.40;;;;;;5029713;28;20449;-66
2023/05/05 08:52:40;;;;;;;4.97;4.10;;;17.50;94.50;;;;;;5028514;28;20441;-65
2023/05/05 08:55:14;;;;;;;5.53;3.47;;;17.60;94.50;;;;;;5029456;28;20457;-62
2023/05/05 08:57:45;;;;;;;3.70;3.40;;;17.70;94.50;;;;;;5029766;28;20440;-65
2023/05/05 09:00:14;;;;;;;4.93;3.33;;;17.90;94.50;;;;;;5029972;28;20528;-66
2023/05/05 09:02:43;;;;;;;6.20;4.20;;;18.10;94.00;;;;;;5028312;28;20920;-65
2023/05/05 09:05:10;;;;;;;4.20;3.50;;;18.50;93.80;;;;;;5029244;28;20495;-68
2023/05/05 09:07:37;;;;;;;5.60;4.73;;;18.90;91.70;;;;;;5029718;28;20453;-66
2023/05/05 09:10:05;;;;;;;5.87;4.07;;;19.20;91.90;;;;;;5029535;28;20455;-68
2023/05/05 09:12:33;;;;;;;4.93;4.43;;;19.50;90.60;;;;;;5028360;28;20445;-68
2023/05/05 09:15:02;;;;;;;8.90;4.80;;;19.80;90.60;;;;;;5029138;28;20461;-69
2023/05/05 09:17:30;;;;;;;6.03;3.50;;;20.00;90.00;;;;;;5029390;28;20467;-67
2023/05/05 09:20:02;;;;;;;6.10;3.70;;;20.30;85.10;;;;;;5029287;28;20448;-66
2023/05/05 09:22:37;;;;;;;6.23;3.77;;;20.50;83.10;;;;;;5028541;28;20451;-66
2023/05/05 09:25:04;;;;;;;7.30;3.90;;;20.80;85.70;;;;;;5032732;28;20488;-65
2023/05/05 09:27:35;;;;;;;5.20;3.90;;;21.10;82.20;;;;;;5033673;28;20487;-66
2023/05/05 09:30:02;;;;;;;4.17;3.60;;;21.40;80.20;;;;;;5033665;28;21110;-66
2023/05/05 09:32:29;;;;;;;4.83;3.10;;;21.60;78.90;;;;;;5032777;28;20453;-68
2023/05/05 09:35:00;;;;;;;3.77;3.47;;;21.80;72.10;;;;;;5033438;28;20473;-66
2023/05/05 09:37:28;;;;;;;3.27;2.90;;;21.80;72.40;;;;;;5033603;28;20535;-68
2023/05/05 09:39:55;;;;;;;4.63;3.30;;;21.90;74.50;;;;;;5033492;28;20452;-65
2023/05/05 09:42:22;;;;;;;4.87;3.33;;;22.00;67.90;;;;;;5032911;28;20448;-68
2023/05/05 09:44:51;;;;;;;3.50;3.00;;;22.00;69.40;;;;;;5033381;28;21087;-67
2023/05/05 09:47:18;;;;;;;3.27;2.97;;;22.10;68.60;;;;;;5033807;28;20449;-69
2023/05/05 09:49:45;;;;;;;3.43;2.97;;;22.20;69.30;;;;;;5033750;28;20445;-66
2023/05/05 09:52:14;;;;;;;4.10;3.40;;;22.20;68.00;;;;;;5033408;28;20462;-70
2023/05/05 09:54:42;;;;;;;5.20;3.80;;;22.20;68.70;;;;;;5032852;28;20464;-66
2023/05/05 09:57:24;;;;;;;4.63;3.30;;;22.50;69.70;;;;;;5033127;28;20448;-67
2023/05/05 10:00:03;;;;;;;3.20;2.90;;;22.80;66.30;;;;;;5033982;28;20451;-67
2023/05/05 10:02:34;;;;;;;3.50;2.50;;;23.70;62.20;;;;;;5032497;28;20452;-66
2023/05/05 10:05:09;;;;;;;3.37;2.97;;;24.70;61.20;;;;;;5032905;28;20476;-67
2023/05/05 10:07:37;;;;;;;3.00;2.70;;;25.50;60.20;;;;;;5032996;28;21056;-69
2023/05/05 10:10:05;;;;;;;3.93;2.80;;;25.80;56.40;;;;;;5033152;28;20436;-66
2023/05/05 10:12:34;;;;;;;2.70;2.50;;;25.90;56.50;;;;;;5032161;28;20437;-65
2023/05/05 10:15:04;;;;;;;4.00;2.90;;;25.50;53.40;;;;;;5033095;28;20499;-68
2023/05/05 10:17:32;;;;;;;3.17;2.70;;;25.00;55.90;;;;;;5033064;28;20455;-67
2023/05/05 10:20:02;;;;;;;2.63;2.30;;;24.60;58.60;;;;;;5032852;28;20962;-67
2023/05/05 10:22:33;;;;;;;2.80;2.43;;;24.50;59.40;;;;;;5031675;28;20539;-68
2023/05/05 10:25:03;;;;;;;3.37;2.60;;;24.20;57.80;;;;;;5032978;28;20534;-66
2023/05/05 10:27:38;;;;;;;2.90;2.60;;;23.90;57.30;;;;;;5032682;28;20951;-66
2023/05/05 10:30:08;;;;;;;4.27;2.40;;;23.60;57.70;;;;;;5033147;28;20448;-67
2023/05/05 10:32:44;;;;;;;3.50;2.80;;;23.30;57.00;;;;;;5031681;28;20451;-66
2023/05/05 10:35:14;;;;;;;3.10;2.80;;;23.00;60.00;;;;;;5031700;28;20771;-66
2023/05/05 10:37:41;;;;;;;3.00;2.70;;;22.80;58.50;;;;;;5033169;28;20472;-69
2023/05/05 10:40:10;;;;;;;5.30;2.67;;;22.70;60.30;;;;;;5032980;28;20452;-66
2023/05/05 10:42:39;;;;;;;3.93;3.37;;;22.50;63.20;;;;;;5031555;28;20453;-69
2023/05/05 10:45:09;;;;;;;3.73;3.30;;;22.70;62.50;;;;;;5032489;28;20484;-66
2023/05/05 10:47:37;;;;;;;3.50;2.30;;;22.70;63.30;;;;;;5032830;28;20443;-68
2023/05/05 10:50:11;;;;;;;3.40;3.10;;;22.70;64.30;;;;;;5032654;28;20449;-66
2023/05/05 10:52:45;;;;;;;4.00;3.07;;;22.70;61.00;;;;;;5031423;28;20474;-71
2023/05/05 10:55:16;;;;;;;3.20;2.90;;;22.50;62.10;;;;;;5032538;28;20464;-66
2023/05/05 10:57:53;;;;;;;4.63;2.70;;;22.20;61.30;;;;;;5032341;28;20449;-65
2023/05/05 11:00:54;;;;;;;4.83;2.67;;;22.00;64.00;;;;;;5032600;28;20440;-67
2023/05/05 11:03:23;;;;;;;3.60;3.07;;;21.70;62.10;;;;;;4969478;28;20985;-66
2023/05/05 11:06:12;;;;;;;2.70;2.50;;;21.60;64.20;;;;;;4970550;28;20497;-68
2023/05/05 11:08:41;;;;;;;3.17;2.87;;;21.40;65.60;;;;;;5008433;28;20448;-69
2023/05/05 11:11:10;;;;;;;3.30;3.00;;;21.50;63.00;;;;;;5033027;28;20451;-69
2023/05/05 11:13:37;;;;;;;3.53;3.00;;;21.40;63.50;;;;;;5030975;28;20535;-65
2023/05/05 11:16:26;;;;;;;3.70;3.10;;;21.40;63.30;;;;;;5031944;28;20930;-69
2023/05/05 11:18:53;;;;;;;3.80;3.10;;;21.50;61.30;;;;;;5031964;28;20448;-66
2023/05/05 11:21:20;;;;;;;3.60;2.93;;;21.80;64.00;;;;;;5031913;28;20951;-69
2023/05/05 11:23:50;;;;;;;3.43;3.13;;;22.20;61.50;;;;;;5030697;28;20535;-66
2023/05/05 11:26:38;;;;;;;5.57;3.40;;;22.40;63.00;;;;;;5031911;28;20503;-66
2023/05/05 11:29:05;;;;;;;3.07;2.77;;;22.70;68.70;;;;;;5031973;28;20448;-67
2023/05/05 11:31:33;;;;;;;4.07;3.10;;;22.90;69.90;;;;;;5031915;28;20872;-67
2023/05/05 11:34:26;;;;;;;3.23;3.03;;;23.30;68.40;;;;;;5030637;28;20476;-67
2023/05/05 11:36:57;;;;;;;3.33;3.03;;;23.70;60.20;;;;;;5031907;28;20472;-66
2023/05/05 11:39:43;;;;;;;3.43;2.80;;;24.00;64.00;;;;;;5031857;28;20449;-66
2023/05/05 11:42:25;;;;;;;3.10;2.43;;;24.50;57.10;;;;;;5022827;28;20450;-65
2023/05/05 11:44:52;;;;;;;3.50;3.20;;;25.00;54.20;;;;;;4991613;28;20990;-66
2023/05/05 11:47:31;;;;;;;5.43;3.30;;;25.60;53.00;;;;;;4991410;28;20867;-68
2023/05/05 11:49:58;;;;;;;3.17;2.83;;;26.10;53.20;;;;;;4992043;28;20442;-67
2023/05/05 11:52:26;;;;;;;3.30;3.00;;;26.40;54.00;;;;;;4991286;28;20992;-65
2023/05/05 11:54:53;;;;;;;4.80;2.63;;;26.70;49.70;;;;;;4992289;28;20467;-70
2023/05/05 11:57:27;;;;;;;3.00;2.63;;;26.70;48.90;;;;;;4992594;28;20454;-66
2023/05/05 11:59:55;;;;;;;3.47;2.37;;;26.90;50.00;;;;;;4992486;28;20476;-65
2023/05/05 12:02:23;;;;;;;2.90;2.40;;;26.50;48.50;;;;;;4991330;28;20509;-65
2023/05/05 12:04:51;;;;;;;3.57;2.27;;;26.10;50.00;;;;;;4991989;28;20563;-70
2023/05/05 12:07:20;;;;;;;4.00;3.10;;;26.20;50.70;;;;;;4992008;28;20486;-66
2023/05/05 12:09:48;;;;;;;3.30;2.13;;;26.50;48.20;;;;;;4992083;28;20451;-66
2023/05/05 12:12:15;;;;;;;3.73;2.53;;;26.70;49.10;;;;;;4991530;28;20549;-71
2023/05/05 12:14:47;;;;;;;2.27;1.97;;;26.80;51.20;;;;;;4990112;28;20993;-65
2023/05/05 12:17:14;;;;;;;2.97;2.33;;;27.40;50.00;;;;;;4991594;28;20493;-70
2023/05/05 12:19:48;;;;;;;3.97;2.73;;;27.90;49.30;;;;;;4991988;28;20540;-67
2023/05/05 12:22:24;;;;;;;2.50;2.30;;;28.30;51.30;;;;;;4991306;28;20458;-67
2023/05/05 12:24:55;;;;;;;4.20;2.40;;;28.80;46.20;;;;;;4991826;28;20462;-67
2023/05/05 12:27:22;;;;;;;3.80;2.77;;;29.00;47.10;;;;;;4991625;28;20565;-67
2023/05/05 12:29:49;;;;;;;2.43;2.23;;;29.00;46.20;;;;;;4993535;28;20461;-67
2023/05/05 12:32:21;;;;;;;2.93;2.30;;;28.80;46.40;;;;;;4993084;28;20461;-67
2023/05/05 12:34:49;;;;;;;2.67;2.40;;;28.70;47.50;;;;;;4991934;28;20475;-67
2023/05/05 12:37:17;;;;;;;2.90;2.30;;;28.80;46.90;;;;;;4994467;28;20478;-67
2023/05/05 12:39:46;;;;;;;2.70;2.50;;;28.50;46.40;;;;;;4992707;28;20462;-68
2023/05/05 12:42:13;;;;;;;2.33;2.13;;;28.10;45.90;;;;;;4992983;28;20451;-69
2023/05/05 12:44:42;;;;;;;4.70;2.73;;;27.70;51.30;;;;;;4992935;28;20542;-67